Time;durP1;ratioP1;P1;durP2;ratioP2;P2;SDS_P1;SDS_P2;PMS_P1;PMS_P2;Temp;Humidity;BMP_temperature;BMP_pressure;BME280_temperature;BME280_humidity;BME280_pressure;Samples;Min_cycle;Max_cycle;Signal;HPM_P1;HPM_P2
2022/10/16 00:02:46;;;;;;;15.47;10.23;;;;;;;;;;10533628;28;20040;-61
2022/10/16 00:07:46;;;;;;;17.83;10.80;;;;;;;;;;10533484;28;20039;-59
2022/10/16 00:12:46;;;;;;;13.00;10.10;;;;;;;;;;10534931;28;20044;-54
2022/10/16 00:17:47;;;;;;;15.38;10.02;;;;;;;;;;10531575;28;20031;-56
2022/10/16 00:22:47;;;;;;;13.20;9.02;;;;;;;;;;10533565;28;20501;-57
2022/10/16 00:27:47;;;;;;;11.25;8.82;;;;;;;;;;10531930;28;20034;-61
2022/10/16 00:32:47;;;;;;;11.57;9.35;;;;;;;;;;10534888;28;20034;-58
2022/10/16 00:37:48;;;;;;;11.27;8.63;;;;;;;;;;10534867;28;20039;-60
2022/10/16 00:42:48;;;;;;;11.10;9.23;;;;;;;;;;10534634;28;20043;-60
2022/10/16 00:47:51;;;;;;;11.60;9.43;;;;;;;;;;10533832;28;20024;-55
2022/10/16 00:52:51;;;;;;;14.25;9.50;;;;;;;;;;10534330;28;20501;-61
2022/10/16 00:57:51;;;;;;;11.33;8.70;;;;;;;;;;10533897;28;20046;-60
2022/10/16 01:02:53;;;;;;;11.13;8.50;;;;;;;;;;10534265;28;20103;-58
2022/10/16 01:08:07;;;;;;;12.07;8.93;;;;;;;;;;10533387;28;20028;-60
2022/10/16 01:13:12;;;;;;;13.15;9.25;;;;;;;;;;10533389;28;20047;-61
2022/10/16 01:18:33;;;;;;;11.80;8.82;;;;;;;;;;10533259;28;20064;-61
2022/10/16 01:23:46;;;;;;;11.55;8.80;;;;;;;;;;10533027;28;20464;-61
2022/10/16 01:28:57;;;;;;;13.23;9.35;;;;;;;;;;10529935;28;20032;-55
2022/10/16 01:34:03;;;;;;;9.77;8.23;;;;;;;;;;10532202;28;20032;-61
2022/10/16 01:39:05;;;;;;;11.30;9.25;;;;;;;;;;10530111;28;20040;-61
2022/10/16 01:44:08;;;;;;;10.07;8.25;;;;;;;;;;10533224;28;20038;-61
2022/10/16 01:49:09;;;;;;;11.75;8.73;;;;;;;;;;10532617;28;20059;-60
2022/10/16 01:54:11;;;;;;;12.18;8.85;;;;;;;;;;10532390;28;20091;-61
2022/10/16 01:59:16;;;;;;;8.88;7.97;;;;;;;;;;10531776;28;20091;-61
2022/10/16 02:04:18;;;;;;;9.77;7.68;;;;;;;;;;10532524;28;20411;-62
2022/10/16 02:09:19;;;;;;;14.38;8.80;;;;;;;;;;10532326;28;20103;-59
2022/10/16 02:14:19;;;;;;;10.82;8.20;;;;;;;;;;10531963;28;20054;-61
2022/10/16 02:19:21;;;;;;;10.43;7.82;;;;;;;;;;10514535;28;20020;-62
2022/10/16 02:24:29;;;;;;;10.70;8.35;;;;;;;;;;10531169;28;20035;-62
2022/10/16 02:29:30;;;;;;;11.50;8.70;;;;;;;;;;10532051;28;20028;-61
2022/10/16 02:34:31;;;;;;;14.13;9.20;;;;;;;;;;10531664;28;20468;-61
2022/10/16 02:39:32;;;;;;;10.68;8.75;;;;;;;;;;10528615;28;20024;-60
2022/10/16 02:44:32;;;;;;;12.65;8.77;;;;;;;;;;10533223;28;20031;-61
2022/10/16 02:49:32;;;;;;;11.85;8.43;;;;;;;;;;10534766;28;20103;-44
2022/10/16 02:54:33;;;;;;;15.40;8.82;;;;;;;;;;10538774;28;20028;-44
2022/10/16 02:59:33;;;;;;;12.65;9.23;;;;;;;;;;10538822;28;20547;-51
2022/10/16 03:04:33;;;;;;;12.27;9.45;;;;;;;;;;10538466;28;20357;-44
2022/10/16 03:09:34;;;;;;;10.83;9.23;;;;;;;;;;10538415;28;20491;-44
2022/10/16 03:14:34;;;;;;;11.18;8.73;;;;;;;;;;10538006;28;20391;-44
2022/10/16 03:19:35;;;;;;;11.40;9.35;;;;;;;;;;10538061;28;20032;-44
2022/10/16 03:24:35;;;;;;;11.68;9.20;;;;;;;;;;10537872;28;20054;-44
2022/10/16 03:29:36;;;;;;;12.48;9.65;;;;;;;;;;10537728;28;20055;-50
2022/10/16 03:34:36;;;;;;;11.02;9.27;;;;;;;;;;10537249;28;20031;-45
2022/10/16 03:39:36;;;;;;;15.02;10.73;;;;;;;;;;10537431;28;20107;-54
2022/10/16 03:44:36;;;;;;;13.02;9.70;;;;;;;;;;10537033;28;20077;-45
2022/10/16 03:49:37;;;;;;;13.35;10.02;;;;;;;;;;10533590;28;20478;-48
2022/10/16 03:54:37;;;;;;;15.00;10.70;;;;;;;;;;10536361;28;20465;-54
2022/10/16 03:59:37;;;;;;;11.63;9.38;;;;;;;;;;10533198;28;20047;-45
2022/10/16 04:04:37;;;;;;;11.88;9.68;;;;;;;;;;10536033;28;20265;-59
2022/10/16 04:09:38;;;;;;;13.02;10.35;;;;;;;;;;10536089;28;20032;-44
2022/10/16 04:14:38;;;;;;;11.50;9.70;;;;;;;;;;10517417;28;20070;-44
2022/10/16 04:19:38;;;;;;;11.02;9.30;;;;;;;;;;10535617;28;20547;-44
2022/10/16 04:24:39;;;;;;;12.23;10.00;;;;;;;;;;10535408;28;20443;-49
2022/10/16 04:29:39;;;;;;;13.32;9.55;;;;;;;;;;10535438;28;20034;-44
2022/10/16 04:34:39;;;;;;;12.43;9.23;;;;;;;;;;10534903;28;20042;-44
2022/10/16 04:39:40;;;;;;;14.75;10.60;;;;;;;;;;10535447;28;20032;-60
2022/10/16 04:44:40;;;;;;;13.82;10.32;;;;;;;;;;10534727;28;20053;-44
2022/10/16 04:49:40;;;;;;;11.10;9.68;;;;;;;;;;10534628;28;20031;-49
2022/10/16 04:54:40;;;;;;;12.90;9.95;;;;;;;;;;10533967;28;20502;-44
2022/10/16 04:59:41;;;;;;;11.55;9.10;;;;;;;;;;10530813;28;20353;-53
2022/10/16 05:04:41;;;;;;;10.10;7.88;;;;;;;;;;10534066;28;20556;-46
2022/10/16 05:09:41;;;;;;;12.38;9.63;;;;;;;;;;10530253;28;20371;-47
2022/10/16 05:14:42;;;;;;;12.10;9.15;;;;;;;;;;10533604;28;20048;-60
2022/10/16 05:19:42;;;;;;;9.90;8.82;;;;;;;;;;10533478;28;20028;-50
2022/10/16 05:24:42;;;;;;;14.73;9.13;;;;;;;;;;10533335;28;20031;-45
2022/10/16 05:29:42;;;;;;;11.13;9.13;;;;;;;;;;10533135;28;20061;-46
2022/10/16 05:34:43;;;;;;;9.75;8.68;;;;;;;;;;10533057;28;20020;-57
2022/10/16 05:39:43;;;;;;;11.07;8.90;;;;;;;;;;10533054;28;20031;-49
2022/10/16 05:44:43;;;;;;;10.98;9.05;;;;;;;;;;10532639;28;20036;-55
2022/10/16 05:49:44;;;;;;;9.25;8.25;;;;;;;;;;10531614;28;20112;-61
2022/10/16 05:54:44;;;;;;;9.53;8.50;;;;;;;;;;10530760;28;20032;-51
2022/10/16 05:59:45;;;;;;;14.52;8.60;;;;;;;;;;10529981;28;20534;-55
2022/10/16 06:04:45;;;;;;;9.63;8.63;;;;;;;;;;10525406;28;20035;-44
2022/10/16 06:09:49;;;;;;;9.05;8.15;;;;;;;;;;10532302;28;20374;-47
2022/10/16 06:14:50;;;;;;;10.43;8.90;;;;;;;;;;10532109;28;20055;-47
2022/10/16 06:19:50;;;;;;;13.15;9.68;;;;;;;;;;10534903;28;20520;-60
2022/10/16 06:24:51;;;;;;;21.85;9.73;;;;;;;;;;10539445;28;20542;-48
2022/10/16 06:29:51;;;;;;;18.23;9.35;;;;;;;;;;10539545;28;20425;-46
2022/10/16 06:34:51;;;;;;;20.02;9.82;;;;;;;;;;10539461;28;20111;-46
2022/10/16 06:39:54;;;;;;;17.05;12.25;;;;;;;;;;10539262;28;20028;-46
2022/10/16 06:44:54;;;;;;;21.00;13.45;;;;;;;;;;10539377;28;20107;-46
2022/10/16 06:49:55;;;;;;;20.13;13.77;;;;;;;;;;10539225;28;20099;-55
2022/10/16 06:54:55;;;;;;;19.42;13.48;;;;;;;;;;10538916;28;20063;-46
2022/10/16 06:59:55;;;;;;;22.02;14.73;;;;;;;;;;10538740;28;20024;-47
2022/10/16 07:04:56;;;;;;;21.30;13.70;;;;;;;;;;10535120;28;20024;-46
2022/10/16 07:09:57;;;;;;;18.55;13.75;;;;;;;;;;10538932;28;20157;-61
2022/10/16 07:14:57;;;;;;;19.60;13.43;;;;;;;;;;10534499;28;20325;-46
2022/10/16 07:19:57;;;;;;;23.50;16.67;;;;;;;;;;10536708;28;20035;-47
2022/10/16 07:24:57;;;;;;;25.90;19.53;;;;;;;;;;10537039;28;20024;-46
2022/10/16 07:29:58;;;;;;;42.13;27.65;;;;;;;;;;10536524;28;20020;-44
2022/10/16 07:34:58;;;;;;;37.38;25.80;;;;;;;;;;10536490;28;20053;-45
2022/10/16 07:39:58;;;;;;;37.63;21.15;;;;;;;;;;10537092;28;20028;-46
2022/10/16 07:44:58;;;;;;;32.92;23.75;;;;;;;;;;10536555;28;20032;-45
2022/10/16 07:49:59;;;;;;;31.98;22.67;;;;;;;;;;10535813;28;20039;-43
2022/10/16 07:54:59;;;;;;;41.88;25.05;;;;;;;;;;10535634;28;20054;-47
2022/10/16 07:59:59;;;;;;;38.55;25.40;;;;;;;;;;10536298;28;20024;-45
2022/10/16 08:04:59;;;;;;;34.90;22.38;;;;;;;;;;10535905;28;20024;-46
2022/10/16 08:10:00;;;;;;;33.70;23.77;;;;;;;;;;10535851;28;20485;-45
2022/10/16 08:15:00;;;;;;;37.03;25.07;;;;;;;;;;10535876;28;20079;-47
2022/10/16 08:20:01;;;;;;;34.80;23.15;;;;;;;;;;10533635;28;20324;-46
2022/10/16 08:25:02;;;;;;;35.50;23.70;;;;;;;;;;10535485;28;20024;-47
2022/10/16 08:30:02;;;;;;;32.08;23.67;;;;;;;;;;10514859;28;20032;-52
2022/10/16 08:35:02;;;;;;;33.10;23.07;;;;;;;;;;10515846;28;20035;-47
2022/10/16 08:40:04;;;;;;;31.23;21.27;;;;;;;;;;10534390;28;20504;-48
2022/10/16 08:45:23;;;;;;;27.17;21.17;;;;;;;;;;10534419;28;20452;-47
2022/10/16 08:50:25;;;;;;;28.02;21.73;;;;;;;;;;10534590;28;20032;-48
2022/10/16 08:55:25;;;;;;;29.52;22.50;;;;;;;;;;10516179;28;20427;-48
2022/10/16 09:00:26;;;;;;;29.83;20.83;;;;;;;;;;10534069;28;20024;-46
2022/10/16 09:05:49;;;;;;;38.42;21.08;;;;;;;;;;10534312;28;20060;-46
2022/10/16 09:10:55;;;;;;;25.45;20.23;;;;;;;;;;10533978;28;20016;-46
2022/10/16 09:16:01;;;;;;;27.15;20.73;;;;;;;;;;10532659;28;20044;-46
2022/10/16 09:21:10;;;;;;;29.30;18.85;;;;;;;;;;10533774;28;20058;-47
2022/10/16 09:26:15;;;;;;;23.98;19.05;;;;;;;;;;10533706;28;20038;-46
2022/10/16 09:31:17;;;;;;;24.02;17.42;;;;;;;;;;10533420;28;20024;-48
2022/10/16 09:36:18;;;;;;;32.60;18.30;;;;;;;;;;10533196;28;20038;-46
2022/10/16 09:41:20;;;;;;;25.20;19.13;;;;;;;;;;10533184;28;20383;-46
2022/10/16 09:46:28;;;;;;;23.02;18.75;;;;;;;;;;10532809;28;20122;-64
2022/10/16 09:51:35;;;;;;;22.90;18.07;;;;;;;;;;10531457;28;20115;-46
2022/10/16 09:56:38;;;;;;;25.57;18.53;;;;;;;;;;10540710;28;20023;-46
2022/10/16 10:01:50;;;;;;;22.30;18.42;;;;;;;;;;10540505;28;20027;-46
2022/10/16 10:06:55;;;;;;;23.70;18.25;;;;;;;;;;10540154;28;20452;-48
2022/10/16 10:11:56;;;;;;;23.98;17.23;;;;;;;;;;10540516;28;20044;-46
2022/10/16 10:17:02;;;;;;;24.55;17.67;;;;;;;;;;10540262;28;20498;-47
2022/10/16 10:22:13;;;;;;;23.13;17.27;;;;;;;;;;10539612;28;20055;-46
2022/10/16 10:27:16;;;;;;;24.48;17.23;;;;;;;;;;10540346;28;20024;-46
2022/10/16 10:32:23;;;;;;;22.92;16.58;;;;;;;;;;10539743;28;20035;-46
2022/10/16 10:37:35;;;;;;;22.55;16.80;;;;;;;;;;10539203;28;20032;-46
2022/10/16 10:42:43;;;;;;;20.50;15.85;;;;;;;;;;10539756;28;20039;-46
2022/10/16 10:47:51;;;;;;;19.15;16.33;;;;;;;;;;10539626;28;20115;-47
2022/10/16 10:53:07;;;;;;;23.88;16.60;;;;;;;;;;10539547;28;20153;-46
2022/10/16 10:58:20;;;;;;;22.33;15.63;;;;;;;;;;10539637;28;20115;-47
2022/10/16 11:03:20;;;;;;;19.58;15.05;;;;;;;;;;10539441;28;20016;-46
2022/10/16 11:08:25;;;;;;;21.83;15.80;;;;;;;;;;10537763;28;20479;-50
2022/10/16 11:13:32;;;;;;;20.13;15.38;;;;;;;;;;10538455;28;20046;-47
2022/10/16 11:18:45;;;;;;;19.38;15.98;;;;;;;;;;10538323;28;20035;-48
2022/10/16 11:23:51;;;;;;;24.65;16.02;;;;;;;;;;10538053;28;20052;-47
2022/10/16 11:28:54;;;;;;;28.20;19.38;;;;;;;;;;10538185;28;20271;-49
2022/10/16 11:33:57;;;;;;;28.80;19.13;;;;;;;;;;10537715;28;20020;-47
2022/10/16 11:39:06;;;;;;;25.25;18.42;;;;;;;;;;10538121;28;20032;-47
2022/10/16 11:44:12;;;;;;;28.33;17.92;;;;;;;;;;10537472;28;20032;-48
2022/10/16 11:49:15;;;;;;;23.02;16.92;;;;;;;;;;10537249;28;20028;-46
2022/10/16 11:54:24;;;;;;;25.15;17.30;;;;;;;;;;10537448;28;20024;-50
2022/10/16 11:59:34;;;;;;;23.40;16.88;;;;;;;;;;10536843;28;20103;-47
2022/10/16 12:04:45;;;;;;;26.08;17.77;;;;;;;;;;10536412;28;20107;-47
2022/10/16 12:09:45;;;;;;;19.33;15.18;;;;;;;;;;10536310;28;20043;-46
2022/10/16 12:14:45;;;;;;;23.30;16.25;;;;;;;;;;10536482;28;20047;-47
2022/10/16 12:19:56;;;;;;;22.55;16.08;;;;;;;;;;10535803;28;20361;-46
2022/10/16 12:24:56;;;;;;;18.55;15.52;;;;;;;;;;10535696;28;20131;-47
2022/10/16 12:29:58;;;;;;;22.50;16.13;;;;;;;;;;10534757;28;20139;-47
2022/10/16 12:34:59;;;;;;;19.40;14.88;;;;;;;;;;10535183;28;20210;-47
2022/10/16 12:40:11;;;;;;;22.73;15.82;;;;;;;;;;10535068;28;20098;-47
2022/10/16 12:45:33;;;;;;;20.27;15.93;;;;;;;;;;10535163;28;20028;-47
2022/10/16 12:50:35;;;;;;;23.20;15.80;;;;;;;;;;10534728;28;20030;-47
2022/10/16 12:55:47;;;;;;;18.67;15.82;;;;;;;;;;10534889;28;20032;-46
2022/10/16 13:00:54;;;;;;;22.15;16.23;;;;;;;;;;10534396;28;20020;-46
2022/10/16 13:05:57;;;;;;;21.00;15.10;;;;;;;;;;10532911;28;20081;-48
2022/10/16 13:11:04;;;;;;;18.80;14.52;;;;;;;;;;10533396;28;20028;-47
2022/10/16 13:16:13;;;;;;;19.15;15.60;;;;;;;;;;10534547;28;20562;-46
2022/10/16 13:21:13;;;;;;;18.00;14.18;;;;;;;;;;10533581;28;20490;-45
2022/10/16 13:31:51;;;;;;;18.10;14.17;;;;;;;;;;10534157;28;20028;-43
2022/10/16 13:36:52;;;;;;;16.92;14.20;;;;;;;;;;10532789;28;20483;-45
2022/10/16 13:42:04;;;;;;;15.32;13.18;;;;;;;;;;10533189;28;20085;-46
2022/10/16 13:47:05;;;;;;;16.63;13.38;;;;;;;;;;10533207;28;20028;-45
2022/10/16 13:52:05;;;;;;;19.80;14.45;;;;;;;;;;10532280;28;20024;-45
2022/10/16 13:57:06;;;;;;;19.23;13.90;;;;;;;;;;10532758;28;20050;-45
2022/10/16 14:02:27;;;;;;;17.85;14.07;;;;;;;;;;10532224;28;20036;-44
2022/10/16 14:07:31;;;;;;;17.42;13.43;;;;;;;;;;10530006;28;20476;-47
2022/10/16 14:12:32;;;;;;;17.02;13.27;;;;;;;;;;10530804;28;20445;-45
2022/10/16 14:17:33;;;;;;;16.23;13.00;;;;;;;;;;10532221;28;20093;-59
2022/10/16 14:22:34;;;;;;;17.17;13.43;;;;;;;;;;10531944;28;20586;-46
2022/10/16 14:27:40;;;;;;;18.30;13.33;;;;;;;;;;10532081;28;20115;-61
2022/10/16 14:32:41;;;;;;;15.80;13.30;;;;;;;;;;10531306;28;20391;-56
2022/10/16 14:37:43;;;;;;;19.48;12.88;;;;;;;;;;10531690;28;20028;-46
2022/10/16 14:42:44;;;;;;;19.73;13.88;;;;;;;;;;10536077;28;20028;-45
2022/10/16 14:47:49;;;;;;;18.60;12.95;;;;;;;;;;10538120;28;20020;-45
2022/10/16 14:52:50;;;;;;;18.35;13.43;;;;;;;;;;10537116;28;20112;-61
2022/10/16 14:57:50;;;;;;;17.88;13.52;;;;;;;;;;10538695;28;20115;-61
2022/10/16 15:02:51;;;;;;;18.77;12.48;;;;;;;;;;10538942;28;20471;-60
2022/10/16 15:07:53;;;;;;;20.38;12.70;;;;;;;;;;10538972;28;20030;-56
2022/10/16 15:12:53;;;;;;;20.08;12.68;;;;;;;;;;10538511;28;20044;-55
2022/10/16 15:17:56;;;;;;;16.08;12.07;;;;;;;;;;10537515;28;20036;-56
2022/10/16 15:22:57;;;;;;;17.00;12.82;;;;;;;;;;10537392;28;20020;-61
2022/10/16 15:27:58;;;;;;;15.48;12.00;;;;;;;;;;10536183;28;20523;-60
2022/10/16 15:32:58;;;;;;;18.95;12.35;;;;;;;;;;10535365;28;20115;-61
2022/10/16 15:37:59;;;;;;;17.83;13.23;;;;;;;;;;10536271;28;20479;-56
2022/10/16 15:42:59;;;;;;;17.90;12.98;;;;;;;;;;10535115;28;20118;-60
2022/10/16 15:48:00;;;;;;;24.67;13.32;;;;;;;;;;10536438;28;20081;-62
2022/10/16 15:53:00;;;;;;;24.27;12.73;;;;;;;;;;10534489;28;20111;-59
2022/10/16 15:58:00;;;;;;;16.95;13.18;;;;;;;;;;10534061;28;20451;-61
2022/10/16 16:03:01;;;;;;;21.67;12.55;;;;;;;;;;10534588;28;20035;-56
2022/10/16 16:08:01;;;;;;;20.25;13.30;;;;;;;;;;10534133;28;20054;-61
2022/10/16 16:13:04;;;;;;;23.02;13.93;;;;;;;;;;10533592;28;20043;-61
2022/10/16 16:18:05;;;;;;;17.05;12.07;;;;;;;;;;10534370;28;20486;-61
2022/10/16 16:23:05;;;;;;;15.88;11.73;;;;;;;;;;10534668;28;20077;-55
2022/10/16 16:28:06;;;;;;;20.60;12.77;;;;;;;;;;10535074;28;20567;-61
2022/10/16 16:33:07;;;;;;;16.38;11.82;;;;;;;;;;10535139;28;20101;-58
2022/10/16 16:38:07;;;;;;;18.70;11.80;;;;;;;;;;10534540;28;20109;-60
2022/10/16 16:43:07;;;;;;;20.90;12.45;;;;;;;;;;10533435;28;20024;-59
2022/10/16 16:48:08;;;;;;;18.08;12.48;;;;;;;;;;10533655;28;20024;-59
2022/10/16 16:53:08;;;;;;;17.85;12.38;;;;;;;;;;10532681;28;20040;-62
2022/10/16 16:58:08;;;;;;;21.95;11.43;;;;;;;;;;10533830;28;20032;-61
2022/10/16 17:03:10;;;;;;;17.05;12.27;;;;;;;;;;10533663;28;20028;-62
2022/10/16 17:08:10;;;;;;;18.58;13.45;;;;;;;;;;10532856;28;20422;-62
2022/10/16 17:13:10;;;;;;;22.90;13.25;;;;;;;;;;10546565;22;20056;-63
2022/10/16 17:18:11;;;;;;;17.55;12.80;;;;;;;;;;10537332;28;20032;-48
2022/10/16 17:23:12;;;;;;;16.17;12.95;;;;;;;;;;10534952;28;20055;-53
2022/10/16 17:28:13;;;;;;;19.05;12.98;;;;;;;;;;10537569;28;20020;-60
2022/10/16 17:33:13;;;;;;;23.25;13.93;;;;;;;;;;10537577;28;20098;-52
2022/10/16 17:38:13;;;;;;;25.97;12.47;;;;;;;;;;10536739;28;20039;-58
2022/10/16 17:43:14;;;;;;;25.50;14.57;;;;;;;;;;10535349;28;20380;-50
2022/10/16 17:48:14;;;;;;;20.85;13.43;;;;;;;;;;10531973;28;20031;-46
2022/10/16 17:53:14;;;;;;;20.60;14.67;;;;;;;;;;10533658;28;20024;-53
2022/10/16 17:58:15;;;;;;;22.83;12.80;;;;;;;;;;10533430;28;20042;-47
2022/10/16 18:03:15;;;;;;;21.97;12.67;;;;;;;;;;10532255;28;20024;-48
2022/10/16 18:08:15;;;;;;;17.13;12.63;;;;;;;;;;10531970;28;20032;-46
2022/10/16 18:13:16;;;;;;;17.48;12.50;;;;;;;;;;10532147;28;20520;-47
2022/10/16 18:18:16;;;;;;;16.35;12.50;;;;;;;;;;10539434;28;20036;-49
2022/10/16 18:23:17;;;;;;;17.13;13.00;;;;;;;;;;10539556;28;20062;-51
2022/10/16 18:28:18;;;;;;;16.43;12.53;;;;;;;;;;10540522;28;20032;-51
2022/10/16 18:33:18;;;;;;;19.60;13.02;;;;;;;;;;10539690;28;20425;-51
2022/10/16 18:38:19;;;;;;;21.42;13.35;;;;;;;;;;10539463;28;20024;-57
2022/10/16 18:43:19;;;;;;;25.48;13.65;;;;;;;;;;10539737;28;20032;-52
2022/10/16 18:48:20;;;;;;;22.98;12.88;;;;;;;;;;10539139;28;20471;-58
2022/10/16 18:53:20;;;;;;;21.17;14.07;;;;;;;;;;10538722;28;20028;-50
2022/10/16 18:58:20;;;;;;;24.40;16.27;;;;;;;;;;10538173;28;20043;-52
2022/10/16 19:03:21;;;;;;;26.37;15.00;;;;;;;;;;10538404;28;20032;-56
2022/10/16 19:08:21;;;;;;;28.80;15.10;;;;;;;;;;10538047;28;20031;-58
2022/10/16 19:13:21;;;;;;;26.70;15.40;;;;;;;;;;10538040;28;20123;-55
2022/10/16 19:18:21;;;;;;;24.73;15.80;;;;;;;;;;10537247;28;20027;-51
2022/10/16 19:23:22;;;;;;;27.60;14.77;;;;;;;;;;10536438;28;20099;-52
2022/10/16 19:34:01;;;;;;;22.37;15.20;;;;;;;;;;10535885;28;20126;-47
2022/10/16 19:39:06;;;;;;;27.50;15.50;;;;;;;;;;10534220;28;20101;-48
2022/10/16 19:44:08;;;;;;;26.20;15.77;;;;;;;;;;10535014;28;20031;-50
2022/10/16 19:49:09;;;;;;;23.02;14.80;;;;;;;;;;10534805;28;20032;-50
2022/10/16 19:54:11;;;;;;;22.63;15.32;;;;;;;;;;10534782;28;20066;-47
2022/10/16 19:59:12;;;;;;;27.20;14.98;;;;;;;;;;10531532;28;20490;-52
2022/10/16 20:04:13;;;;;;;27.63;14.38;;;;;;;;;;10505086;28;20020;-48
2022/10/16 20:09:13;;;;;;;16.55;13.05;;;;;;;;;;10503992;28;20077;-47
2022/10/16 20:14:13;;;;;;;20.70;13.38;;;;;;;;;;10504195;28;20055;-48
2022/10/16 20:19:14;;;;;;;19.83;13.47;;;;;;;;;;10500006;28;20088;-49
2022/10/16 20:24:15;;;;;;;20.80;13.05;;;;;;;;;;10498184;28;20768;-52
2022/10/16 20:29:15;;;;;;;19.63;13.02;;;;;;;;;;10498146;28;20428;-49
2022/10/16 20:34:15;;;;;;;20.50;12.17;;;;;;;;;;10495901;28;20096;-49
2022/10/16 20:39:16;;;;;;;21.70;13.20;;;;;;;;;;10495510;28;20024;-49
2022/10/16 20:44:16;;;;;;;20.83;12.97;;;;;;;;;;10495884;28;20239;-55
2022/10/16 20:49:17;;;;;;;16.70;12.85;;;;;;;;;;10497194;28;20059;-50
2022/10/16 20:54:17;;;;;;;21.00;12.40;;;;;;;;;;10496827;28;20452;-48
2022/10/16 20:59:17;;;;;;;18.17;12.47;;;;;;;;;;10497876;28;20316;-57
2022/10/16 21:04:17;;;;;;;17.67;12.30;;;;;;;;;;10497348;28;20062;-50
2022/10/16 21:09:18;;;;;;;17.08;11.75;;;;;;;;;;10497301;28;20555;-50
2022/10/16 21:14:18;;;;;;;15.33;11.40;;;;;;;;;;10495441;28;20052;-55
2022/10/16 21:19:22;;;;;;;16.25;11.63;;;;;;;;;;10496646;28;20471;-49
2022/10/16 21:24:22;;;;;;;19.88;11.02;;;;;;;;;;10512632;28;20187;-50
2022/10/16 21:29:23;;;;;;;27.47;12.07;;;;;;;;;;10530938;28;20235;-49
2022/10/16 21:34:23;;;;;;;15.13;11.23;;;;;;;;;;10531035;28;20032;-49
2022/10/16 21:39:24;;;;;;;18.13;11.40;;;;;;;;;;10532218;28;20392;-56
2022/10/16 21:44:24;;;;;;;33.65;10.85;;;;;;;;;;10532028;28;20028;-51
2022/10/16 21:49:24;;;;;;;16.40;10.88;;;;;;;;;;10531169;28;20222;-54
2022/10/16 21:54:24;;;;;;;20.23;10.63;;;;;;;;;;10533167;28;20040;-50
2022/10/16 21:59:25;;;;;;;26.98;11.68;;;;;;;;;;10531805;28;20452;-49
2022/10/16 22:04:25;;;;;;;19.67;9.68;;;;;;;;;;10530439;28;20055;-49
2022/10/16 22:09:25;;;;;;;17.05;10.02;;;;;;;;;;10529761;28;20111;-51
2022/10/16 22:14:26;;;;;;;20.73;10.60;;;;;;;;;;10530022;28;20407;-50
2022/10/16 22:19:26;;;;;;;20.38;9.98;;;;;;;;;;10530851;28;20457;-49
2022/10/16 22:24:27;;;;;;;15.88;10.70;;;;;;;;;;10530221;28;20173;-49
2022/10/16 22:29:27;;;;;;;18.88;9.95;;;;;;;;;;10530607;28;20036;-49
2022/10/16 22:34:28;;;;;;;12.80;9.15;;;;;;;;;;10529893;28;20069;-50
2022/10/16 22:39:28;;;;;;;14.93;9.63;;;;;;;;;;10530260;28;20028;-50
2022/10/16 22:44:29;;;;;;;16.02;10.40;;;;;;;;;;10529895;28;20020;-52
2022/10/16 22:49:29;;;;;;;14.93;10.02;;;;;;;;;;10532162;28;20028;-51
2022/10/16 22:54:29;;;;;;;11.63;9.75;;;;;;;;;;10531407;28;20034;-49
2022/10/16 22:59:30;;;;;;;17.45;9.50;;;;;;;;;;10532137;28;20448;-57
2022/10/16 23:04:31;;;;;;;15.55;10.02;;;;;;;;;;10537967;28;20061;-50
2022/10/16 23:09:31;;;;;;;14.45;9.50;;;;;;;;;;10538674;28;20028;-49
2022/10/16 23:14:31;;;;;;;14.25;9.15;;;;;;;;;;10538372;28;20036;-50
2022/10/16 23:19:32;;;;;;;16.95;9.45;;;;;;;;;;10538482;28;20157;-48
2022/10/16 23:24:32;;;;;;;12.45;9.07;;;;;;;;;;10538779;28;20024;-49
2022/10/16 23:29:32;;;;;;;17.60;9.73;;;;;;;;;;10538499;28;20513;-49
2022/10/16 23:34:32;;;;;;;10.40;8.85;;;;;;;;;;10537469;28;20032;-50
2022/10/16 23:39:33;;;;;;;13.60;9.60;;;;;;;;;;10537580;28;20027;-59
2022/10/16 23:44:34;;;;;;;16.50;9.15;;;;;;;;;;10536445;28;20043;-49
2022/10/16 23:49:34;;;;;;;13.33;8.50;;;;;;;;;;10536733;28;20035;-49
2022/10/16 23:54:34;;;;;;;16.92;9.85;;;;;;;;;;10537204;28;20178;-50
2022/10/16 23:59:34;;;;;;;17.00;9.18;;;;;;;;;;10536946;28;20043;-48
